sensor_id;sensor_type;location;lat;lon;timestamp;temperature;humidity
18974;DHT22;9621;48.690;9.466;2022-11-12T00:00:58;0.00;99.90
18974;DHT22;9621;48.690;9.466;2022-11-12T00:03:25;0.00;99.90
18974;DHT22;9621;48.690;9.466;2022-11-12T00:05:52;-0.10;99.90
18974;DHT22;9621;48.690;9.466;2022-11-12T00:08:20;0.10;99.90
18974;DHT22;9621;48.690;9.466;2022-11-12T00:10:48;-0.20;99.90
18974;DHT22;9621;48.690;9.466;2022-11-12T00:13:15;-0.20;99.90
18974;DHT22;9621;48.690;9.466;2022-11-12T00:15:42;-0.20;99.90
18974;DHT22;9621;48.690;9.466;2022-11-12T00:18:09;-0.10;99.90
18974;DHT22;9621;48.690;9.466;2022-11-12T00:20:36;-0.20;99.90
18974;DHT22;9621;48.690;9.466;2022-11-12T00:23:03;-0.10;99.90
18974;DHT22;9621;48.690;9.466;2022-11-12T00:25:31;-0.20;99.90
18974;DHT22;9621;48.690;9.466;2022-11-12T00:28:03;-0.30;99.90
18974;DHT22;9621;48.690;9.466;2022-11-12T00:30:30;-0.30;99.90
18974;DHT22;9621;48.690;9.466;2022-11-12T00:33:01;-0.20;99.90
18974;DHT22;9621;48.690;9.466;2022-11-12T00:35:28;-0.30;99.90
18974;DHT22;9621;48.690;9.466;2022-11-12T00:37:56;-0.30;99.90
18974;DHT22;9621;48.690;9.466;2022-11-12T00:40:23;-0.30;99.90
18974;DHT22;9621;48.690;9.466;2022-11-12T00:42:52;-0.40;99.90
18974;DHT22;9621;48.690;9.466;2022-11-12T00:45:20;-0.40;99.90
18974;DHT22;9621;48.690;9.466;2022-11-12T00:47:47;-0.30;99.90
18974;DHT22;9621;48.690;9.466;2022-11-12T00:50:14;-0.30;99.90
18974;DHT22;9621;48.690;9.466;2022-11-12T00:52:41;-0.40;99.90
18974;DHT22;9621;48.690;9.466;2022-11-12T00:55:08;-0.40;99.90
18974;DHT22;9621;48.690;9.466;2022-11-12T00:57:35;-0.30;99.90
18974;DHT22;9621;48.690;9.466;2022-11-12T01:00:05;-0.40;99.90
18974;DHT22;9621;48.690;9.466;2022-11-12T01:02:32;-0.40;99.90
18974;DHT22;9621;48.690;9.466;2022-11-12T01:04:59;-0.40;99.90
18974;DHT22;9621;48.690;9.466;2022-11-12T01:07:26;-0.50;99.90
18974;DHT22;9621;48.690;9.466;2022-11-12T01:09:53;-0.50;99.90
18974;DHT22;9621;48.690;9.466;2022-11-12T01:12:20;-0.50;99.90
18974;DHT22;9621;48.690;9.466;2022-11-12T01:14:47;-0.50;99.90
18974;DHT22;9621;48.690;9.466;2022-11-12T01:17:15;-0.50;99.90
18974;DHT22;9621;48.690;9.466;2022-11-12T01:19:42;-0.60;99.90
18974;DHT22;9621;48.690;9.466;2022-11-12T01:22:09;-0.60;99.90
18974;DHT22;9621;48.690;9.466;2022-11-12T01:24:36;-0.60;99.90
18974;DHT22;9621;48.690;9.466;2022-11-12T01:27:03;-0.50;99.90
18974;DHT22;9621;48.690;9.466;2022-11-12T01:29:30;-0.60;99.90
18974;DHT22;9621;48.690;9.466;2022-11-12T01:31:57;-0.60;99.90
18974;DHT22;9621;48.690;9.466;2022-11-12T01:34:26;-0.50;99.90
18974;DHT22;9621;48.690;9.466;2022-11-12T01:36:53;-0.50;99.90
18974;DHT22;9621;48.690;9.466;2022-11-12T01:39:19;-0.50;99.90
18974;DHT22;9621;48.690;9.466;2022-11-12T01:41:47;-0.40;99.90
18974;DHT22;9621;48.690;9.466;2022-11-12T01:44:17;-0.40;99.90
18974;DHT22;9621;48.690;9.466;2022-11-12T01:46:54;-0.30;99.90
18974;DHT22;9621;48.690;9.466;2022-11-12T01:49:29;-0.30;99.90
18974;DHT22;9621;48.690;9.466;2022-11-12T01:52:07;-0.20;99.90
18974;DHT22;9621;48.690;9.466;2022-11-12T01:54:34;-0.20;99.90
18974;DHT22;9621;48.690;9.466;2022-11-12T01:57:02;0.00;99.90
18974;DHT22;9621;48.690;9.466;2022-11-12T01:59:33;-0.10;99.90
18974;DHT22;9621;48.690;9.466;2022-11-12T02:02:02;-0.10;99.90
18974;DHT22;9621;48.690;9.466;2022-11-12T02:04:32;-0.10;99.90
18974;DHT22;9621;48.690;9.466;2022-11-12T02:07:01;0.00;99.90
18974;DHT22;9621;48.690;9.466;2022-11-12T02:09:30;0.20;99.90
18974;DHT22;9621;48.690;9.466;2022-11-12T02:11:58;0.20;99.90
18974;DHT22;9621;48.690;9.466;2022-11-12T02:14:26;0.20;99.90
18974;DHT22;9621;48.690;9.466;2022-11-12T02:16:52;0.30;99.90
18974;DHT22;9621;48.690;9.466;2022-11-12T02:19:19;0.30;99.90
18974;DHT22;9621;48.690;9.466;2022-11-12T02:21:47;0.40;99.90
18974;DHT22;9621;48.690;9.466;2022-11-12T02:24:32;0.40;99.90
18974;DHT22;9621;48.690;9.466;2022-11-12T02:27:02;0.50;99.90
18974;DHT22;9621;48.690;9.466;2022-11-12T02:29:30;0.50;99.90
18974;DHT22;9621;48.690;9.466;2022-11-12T02:31:57;0.60;99.90
18974;DHT22;9621;48.690;9.466;2022-11-12T02:34:24;0.60;99.90
18974;DHT22;9621;48.690;9.466;2022-11-12T02:36:52;0.60;99.90
18974;DHT22;9621;48.690;9.466;2022-11-12T02:39:19;0.70;99.90
18974;DHT22;9621;48.690;9.466;2022-11-12T02:41:46;0.70;99.90
18974;DHT22;9621;48.690;9.466;2022-11-12T02:44:13;0.70;99.90
18974;DHT22;9621;48.690;9.466;2022-11-12T02:46:40;0.80;99.90
18974;DHT22;9621;48.690;9.466;2022-11-12T02:49:07;0.80;99.90
18974;DHT22;9621;48.690;9.466;2022-11-12T02:51:34;0.80;99.90
18974;DHT22;9621;48.690;9.466;2022-11-12T02:54:02;0.80;99.90
18974;DHT22;9621;48.690;9.466;2022-11-12T02:56:29;0.80;99.90
18974;DHT22;9621;48.690;9.466;2022-11-12T02:58:56;0.80;99.90
18974;DHT22;9621;48.690;9.466;2022-11-12T03:01:23;0.80;99.90
18974;DHT22;9621;48.690;9.466;2022-11-12T03:03:50;0.80;99.90
18974;DHT22;9621;48.690;9.466;2022-11-12T03:06:17;0.80;99.90
18974;DHT22;9621;48.690;9.466;2022-11-12T03:08:44;0.90;99.90
18974;DHT22;9621;48.690;9.466;2022-11-12T03:11:14;0.90;99.90
18974;DHT22;9621;48.690;9.466;2022-11-12T03:13:42;0.90;99.90
18974;DHT22;9621;48.690;9.466;2022-11-12T03:16:09;0.90;99.90
18974;DHT22;9621;48.690;9.466;2022-11-12T03:18:36;0.90;99.90
18974;DHT22;9621;48.690;9.466;2022-11-12T03:21:03;0.90;99.90
18974;DHT22;9621;48.690;9.466;2022-11-12T03:23:30;1.00;99.90
18974;DHT22;9621;48.690;9.466;2022-11-12T03:25:57;1.00;99.90
18974;DHT22;9621;48.690;9.466;2022-11-12T03:28:26;0.90;99.90
18974;DHT22;9621;48.690;9.466;2022-11-12T03:30:56;1.00;99.90
18974;DHT22;9621;48.690;9.466;2022-11-12T03:33:24;0.90;99.90
18974;DHT22;9621;48.690;9.466;2022-11-12T03:35:51;0.90;99.90
18974;DHT22;9621;48.690;9.466;2022-11-12T03:38:18;1.00;99.90
18974;DHT22;9621;48.690;9.466;2022-11-12T03:40:44;1.00;99.90
18974;DHT22;9621;48.690;9.466;2022-11-12T03:43:12;0.90;99.90
18974;DHT22;9621;48.690;9.466;2022-11-12T03:45:40;1.00;99.90
18974;DHT22;9621;48.690;9.466;2022-11-12T03:48:07;0.90;99.90
18974;DHT22;9621;48.690;9.466;2022-11-12T03:50:34;0.90;99.90
18974;DHT22;9621;48.690;9.466;2022-11-12T03:53:01;0.90;99.90
18974;DHT22;9621;48.690;9.466;2022-11-12T03:55:28;0.90;99.90
18974;DHT22;9621;48.690;9.466;2022-11-12T03:57:56;0.90;99.90
18974;DHT22;9621;48.690;9.466;2022-11-12T04:00:25;0.90;99.90
18974;DHT22;9621;48.690;9.466;2022-11-12T04:02:54;0.90;99.90
18974;DHT22;9621;48.690;9.466;2022-11-12T04:05:22;0.80;99.90
18974;DHT22;9621;48.690;9.466;2022-11-12T04:08:11;0.80;99.90
18974;DHT22;9621;48.690;9.466;2022-11-12T04:10:55;0.80;99.90
18974;DHT22;9621;48.690;9.466;2022-11-12T04:13:22;0.80;99.90
18974;DHT22;9621;48.690;9.466;2022-11-12T04:15:56;0.90;99.90
18974;DHT22;9621;48.690;9.466;2022-11-12T04:18:43;0.90;99.90
18974;DHT22;9621;48.690;9.466;2022-11-12T04:21:30;0.90;99.90
18974;DHT22;9621;48.690;9.466;2022-11-12T04:24:15;0.90;99.90
18974;DHT22;9621;48.690;9.466;2022-11-12T04:27:00;0.90;99.90
18974;DHT22;9621;48.690;9.466;2022-11-12T04:29:27;0.90;99.90
18974;DHT22;9621;48.690;9.466;2022-11-12T04:32:11;0.90;99.90
18974;DHT22;9621;48.690;9.466;2022-11-12T04:34:39;0.90;99.90
18974;DHT22;9621;48.690;9.466;2022-11-12T04:37:06;0.90;99.90
18974;DHT22;9621;48.690;9.466;2022-11-12T04:39:33;0.90;99.90
18974;DHT22;9621;48.690;9.466;2022-11-12T04:42:01;0.90;99.90
18974;DHT22;9621;48.690;9.466;2022-11-12T04:44:45;0.90;99.90
18974;DHT22;9621;48.690;9.466;2022-11-12T04:47:30;0.90;99.90
18974;DHT22;9621;48.690;9.466;2022-11-12T04:50:00;0.90;99.90
18974;DHT22;9621;48.690;9.466;2022-11-12T04:52:28;0.90;99.90
18974;DHT22;9621;48.690;9.466;2022-11-12T04:54:55;0.80;99.90
18974;DHT22;9621;48.690;9.466;2022-11-12T04:57:23;0.80;99.90
18974;DHT22;9621;48.690;9.466;2022-11-12T04:59:50;0.80;99.90
18974;DHT22;9621;48.690;9.466;2022-11-12T05:02:17;0.80;99.90
18974;DHT22;9621;48.690;9.466;2022-11-12T05:04:44;0.80;99.90
18974;DHT22;9621;48.690;9.466;2022-11-12T05:07:13;0.70;99.90
18974;DHT22;9621;48.690;9.466;2022-11-12T05:09:40;0.70;99.90
18974;DHT22;9621;48.690;9.466;2022-11-12T05:12:08;0.70;99.90
18974;DHT22;9621;48.690;9.466;2022-11-12T05:14:35;0.70;99.90
18974;DHT22;9621;48.690;9.466;2022-11-12T05:17:02;0.80;99.90
18974;DHT22;9621;48.690;9.466;2022-11-12T05:19:29;0.70;99.90
18974;DHT22;9621;48.690;9.466;2022-11-12T05:21:56;0.60;99.90
18974;DHT22;9621;48.690;9.466;2022-11-12T05:24:36;0.60;99.90
18974;DHT22;9621;48.690;9.466;2022-11-12T05:27:04;0.50;99.90
18974;DHT22;9621;48.690;9.466;2022-11-12T05:29:32;0.60;99.90
18974;DHT22;9621;48.690;9.466;2022-11-12T05:31:59;0.50;99.90
18974;DHT22;9621;48.690;9.466;2022-11-12T05:34:26;0.50;99.90
18974;DHT22;9621;48.690;9.466;2022-11-12T05:36:53;0.40;99.90
18974;DHT22;9621;48.690;9.466;2022-11-12T05:39:20;0.40;99.90
18974;DHT22;9621;48.690;9.466;2022-11-12T05:41:48;0.40;99.90
18974;DHT22;9621;48.690;9.466;2022-11-12T05:44:15;0.40;99.90
18974;DHT22;9621;48.690;9.466;2022-11-12T05:46:42;0.40;99.90
18974;DHT22;9621;48.690;9.466;2022-11-12T05:49:09;0.30;99.90
18974;DHT22;9621;48.690;9.466;2022-11-12T05:51:37;0.30;99.90
18974;DHT22;9621;48.690;9.466;2022-11-12T05:54:04;0.40;99.90
18974;DHT22;9621;48.690;9.466;2022-11-12T05:56:31;0.40;99.90
18974;DHT22;9621;48.690;9.466;2022-11-12T05:59:00;0.40;99.90
18974;DHT22;9621;48.690;9.466;2022-11-12T06:01:27;0.50;99.90
18974;DHT22;9621;48.690;9.466;2022-11-12T06:03:54;0.50;99.90
18974;DHT22;9621;48.690;9.466;2022-11-12T06:06:22;0.50;99.90
18974;DHT22;9621;48.690;9.466;2022-11-12T06:08:49;0.50;99.90
18974;DHT22;9621;48.690;9.466;2022-11-12T06:11:16;0.50;99.90
18974;DHT22;9621;48.690;9.466;2022-11-12T06:13:43;0.60;99.90
18974;DHT22;9621;48.690;9.466;2022-11-12T06:16:11;0.50;99.90
18974;DHT22;9621;48.690;9.466;2022-11-12T06:18:38;0.50;99.90
18974;DHT22;9621;48.690;9.466;2022-11-12T06:21:07;0.50;99.90
18974;DHT22;9621;48.690;9.466;2022-11-12T06:23:49;0.60;99.90
18974;DHT22;9621;48.690;9.466;2022-11-12T06:26:17;0.60;99.90
18974;DHT22;9621;48.690;9.466;2022-11-12T06:28:44;0.60;99.90
18974;DHT22;9621;48.690;9.466;2022-11-12T06:31:12;0.60;99.90
18974;DHT22;9621;48.690;9.466;2022-11-12T06:33:39;0.60;99.90
18974;DHT22;9621;48.690;9.466;2022-11-12T06:36:09;0.60;99.90
18974;DHT22;9621;48.690;9.466;2022-11-12T06:38:38;0.60;99.90
18974;DHT22;9621;48.690;9.466;2022-11-12T06:41:06;0.60;99.90
18974;DHT22;9621;48.690;9.466;2022-11-12T06:43:33;0.60;99.90
18974;DHT22;9621;48.690;9.466;2022-11-12T06:46:00;0.60;99.90
18974;DHT22;9621;48.690;9.466;2022-11-12T06:48:29;0.60;99.90
18974;DHT22;9621;48.690;9.466;2022-11-12T06:50:57;0.60;99.90
18974;DHT22;9621;48.690;9.466;2022-11-12T06:53:24;0.70;99.90
18974;DHT22;9621;48.690;9.466;2022-11-12T06:55:51;0.80;99.90
18974;DHT22;9621;48.690;9.466;2022-11-12T06:58:18;0.80;99.90
18974;DHT22;9621;48.690;9.466;2022-11-12T07:00:44;0.80;99.90
18974;DHT22;9621;48.690;9.466;2022-11-12T07:03:13;0.80;99.90
18974;DHT22;9621;48.690;9.466;2022-11-12T07:05:43;0.80;99.90
18974;DHT22;9621;48.690;9.466;2022-11-12T07:08:10;0.90;99.90
18974;DHT22;9621;48.690;9.466;2022-11-12T07:10:37;1.00;99.90
18974;DHT22;9621;48.690;9.466;2022-11-12T07:13:04;1.00;99.90
18974;DHT22;9621;48.690;9.466;2022-11-12T07:15:31;1.10;99.90
18974;DHT22;9621;48.690;9.466;2022-11-12T07:17:58;1.20;99.90
18974;DHT22;9621;48.690;9.466;2022-11-12T07:20:25;1.20;99.90
18974;DHT22;9621;48.690;9.466;2022-11-12T07:22:54;1.30;99.90
18974;DHT22;9621;48.690;9.466;2022-11-12T07:25:20;1.40;99.90
18974;DHT22;9621;48.690;9.466;2022-11-12T07:27:47;1.50;99.90
18974;DHT22;9621;48.690;9.466;2022-11-12T07:30:15;1.60;99.90
18974;DHT22;9621;48.690;9.466;2022-11-12T07:32:42;1.70;99.90
18974;DHT22;9621;48.690;9.466;2022-11-12T07:35:09;1.90;99.90
18974;DHT22;9621;48.690;9.466;2022-11-12T07:41:01;2.20;99.90
18974;DHT22;9621;48.690;9.466;2022-11-12T07:43:32;2.30;99.90
18974;DHT22;9621;48.690;9.466;2022-11-12T07:46:00;2.50;99.90
18974;DHT22;9621;48.690;9.466;2022-11-12T07:48:28;2.60;99.90
18974;DHT22;9621;48.690;9.466;2022-11-12T07:50:59;2.80;99.90
18974;DHT22;9621;48.690;9.466;2022-11-12T07:53:26;2.80;99.90
18974;DHT22;9621;48.690;9.466;2022-11-12T07:55:54;2.90;99.90
18974;DHT22;9621;48.690;9.466;2022-11-12T07:58:24;3.00;99.90
18974;DHT22;9621;48.690;9.466;2022-11-12T08:00:52;3.10;99.90
18974;DHT22;9621;48.690;9.466;2022-11-12T08:03:19;3.20;99.90
18974;DHT22;9621;48.690;9.466;2022-11-12T08:05:46;3.30;99.90
18974;DHT22;9621;48.690;9.466;2022-11-12T08:08:15;3.40;99.90
18974;DHT22;9621;48.690;9.466;2022-11-12T08:10:42;3.50;99.90
18974;DHT22;9621;48.690;9.466;2022-11-12T08:13:09;3.70;99.90
18974;DHT22;9621;48.690;9.466;2022-11-12T08:15:37;3.80;99.90
18974;DHT22;9621;48.690;9.466;2022-11-12T08:18:05;4.00;99.90
18974;DHT22;9621;48.690;9.466;2022-11-12T08:20:31;4.10;99.90
18974;DHT22;9621;48.690;9.466;2022-11-12T08:22:59;4.20;99.90
18974;DHT22;9621;48.690;9.466;2022-11-12T08:25:26;4.30;99.90
18974;DHT22;9621;48.690;9.466;2022-11-12T08:27:55;4.40;99.90
18974;DHT22;9621;48.690;9.466;2022-11-12T08:30:22;4.50;99.90
18974;DHT22;9621;48.690;9.466;2022-11-12T08:32:56;4.50;99.90
18974;DHT22;9621;48.690;9.466;2022-11-12T08:35:23;4.70;99.90
18974;DHT22;9621;48.690;9.466;2022-11-12T08:37:50;4.70;99.90
18974;DHT22;9621;48.690;9.466;2022-11-12T08:40:17;4.80;99.90
18974;DHT22;9621;48.690;9.466;2022-11-12T08:42:44;4.90;99.90
18974;DHT22;9621;48.690;9.466;2022-11-12T08:45:11;5.00;99.90
18974;DHT22;9621;48.690;9.466;2022-11-12T08:47:38;5.10;99.90
18974;DHT22;9621;48.690;9.466;2022-11-12T08:50:07;5.20;99.90
18974;DHT22;9621;48.690;9.466;2022-11-12T08:52:34;5.20;99.90
18974;DHT22;9621;48.690;9.466;2022-11-12T08:55:01;5.30;99.90
18974;DHT22;9621;48.690;9.466;2022-11-12T08:57:28;5.50;99.90
18974;DHT22;9621;48.690;9.466;2022-11-12T08:59:55;5.50;99.90
18974;DHT22;9621;48.690;9.466;2022-11-12T09:02:22;5.60;99.90
18974;DHT22;9621;48.690;9.466;2022-11-12T09:04:49;5.70;99.90
18974;DHT22;9621;48.690;9.466;2022-11-12T09:07:17;5.70;99.90
18974;DHT22;9621;48.690;9.466;2022-11-12T09:09:44;5.70;99.90
18974;DHT22;9621;48.690;9.466;2022-11-12T09:12:11;5.70;99.90
18974;DHT22;9621;48.690;9.466;2022-11-12T09:14:43;5.70;99.90
18974;DHT22;9621;48.690;9.466;2022-11-12T09:17:11;5.70;99.90
18974;DHT22;9621;48.690;9.466;2022-11-12T09:19:38;5.70;99.90
18974;DHT22;9621;48.690;9.466;2022-11-12T09:22:05;5.70;99.90
18974;DHT22;9621;48.690;9.466;2022-11-12T09:24:33;5.70;99.90
18974;DHT22;9621;48.690;9.466;2022-11-12T09:27:00;5.80;99.90
18974;DHT22;9621;48.690;9.466;2022-11-12T09:29:27;5.80;99.90
18974;DHT22;9621;48.690;9.466;2022-11-12T09:31:54;5.80;99.90
18974;DHT22;9621;48.690;9.466;2022-11-12T09:34:24;5.80;99.90
18974;DHT22;9621;48.690;9.466;2022-11-12T09:36:51;5.80;99.90
18974;DHT22;9621;48.690;9.466;2022-11-12T09:39:18;5.80;99.90
18974;DHT22;9621;48.690;9.466;2022-11-12T09:41:46;5.80;99.90
18974;DHT22;9621;48.690;9.466;2022-11-12T09:44:15;5.90;99.90
18974;DHT22;9621;48.690;9.466;2022-11-12T09:46:45;5.90;99.90
18974;DHT22;9621;48.690;9.466;2022-11-12T09:49:16;6.00;99.90
18974;DHT22;9621;48.690;9.466;2022-11-12T09:51:48;6.10;99.90
18974;DHT22;9621;48.690;9.466;2022-11-12T09:54:22;6.20;99.90
18974;DHT22;9621;48.690;9.466;2022-11-12T09:56:55;6.20;99.90
18974;DHT22;9621;48.690;9.466;2022-11-12T09:59:26;6.30;99.90
18974;DHT22;9621;48.690;9.466;2022-11-12T10:01:58;6.50;99.90
18974;DHT22;9621;48.690;9.466;2022-11-12T10:04:56;6.40;99.90
18974;DHT22;9621;48.690;9.466;2022-11-12T10:07:44;6.60;99.90
18974;DHT22;9621;48.690;9.466;2022-11-12T10:10:15;6.80;99.90
18974;DHT22;9621;48.690;9.466;2022-11-12T10:12:54;7.00;99.90
18974;DHT22;9621;48.690;9.466;2022-11-12T10:15:37;7.20;99.90
18974;DHT22;9621;48.690;9.466;2022-11-12T10:18:49;7.50;99.90
18974;DHT22;9621;48.690;9.466;2022-11-12T10:21:23;7.80;99.90
18974;DHT22;9621;48.690;9.466;2022-11-12T10:23:56;8.10;99.90
18974;DHT22;9621;48.690;9.466;2022-11-12T10:26:25;8.30;99.90
18974;DHT22;9621;48.690;9.466;2022-11-12T10:28:58;8.40;99.90
18974;DHT22;9621;48.690;9.466;2022-11-12T10:31:27;8.50;99.90
18974;DHT22;9621;48.690;9.466;2022-11-12T10:34:10;8.50;99.90
18974;DHT22;9621;48.690;9.466;2022-11-12T10:36:42;8.60;99.90
18974;DHT22;9621;48.690;9.466;2022-11-12T10:39:30;8.70;99.90
18974;DHT22;9621;48.690;9.466;2022-11-12T10:42:03;9.00;99.90
18974;DHT22;9621;48.690;9.466;2022-11-12T10:44:32;9.20;99.90
18974;DHT22;9621;48.690;9.466;2022-11-12T10:47:19;9.40;99.90
18974;DHT22;9621;48.690;9.466;2022-11-12T10:50:04;9.70;99.90
18974;DHT22;9621;48.690;9.466;2022-11-12T10:52:32;10.00;99.90
18974;DHT22;9621;48.690;9.466;2022-11-12T10:55:05;10.40;99.90
18974;DHT22;9621;48.690;9.466;2022-11-12T10:57:32;10.70;99.90
18974;DHT22;9621;48.690;9.466;2022-11-12T11:00:14;11.10;99.90
18974;DHT22;9621;48.690;9.466;2022-11-12T11:02:45;11.50;99.90
18974;DHT22;9621;48.690;9.466;2022-11-12T11:05:31;11.80;99.90
18974;DHT22;9621;48.690;9.466;2022-11-12T11:07:58;12.20;99.90
18974;DHT22;9621;48.690;9.466;2022-11-12T11:10:28;12.60;99.90
18974;DHT22;9621;48.690;9.466;2022-11-12T11:13:17;12.80;99.90
18974;DHT22;9621;48.690;9.466;2022-11-12T11:15:59;13.10;99.90
18974;DHT22;9621;48.690;9.466;2022-11-12T11:18:27;13.30;99.90
18974;DHT22;9621;48.690;9.466;2022-11-12T11:21:02;13.50;99.90
18974;DHT22;9621;48.690;9.466;2022-11-12T11:23:36;13.70;99.90
18974;DHT22;9621;48.690;9.466;2022-11-12T11:26:28;13.90;99.90
18974;DHT22;9621;48.690;9.466;2022-11-12T11:29:04;14.00;99.90
18974;DHT22;9621;48.690;9.466;2022-11-12T11:31:51;14.10;99.90
18974;DHT22;9621;48.690;9.466;2022-11-12T11:34:32;14.20;99.90
18974;DHT22;9621;48.690;9.466;2022-11-12T11:37:11;14.20;99.90
18974;DHT22;9621;48.690;9.466;2022-11-12T11:39:48;14.20;99.90
18974;DHT22;9621;48.690;9.466;2022-11-12T11:42:30;14.20;99.90
18974;DHT22;9621;48.690;9.466;2022-11-12T11:45:11;14.10;99.90
18974;DHT22;9621;48.690;9.466;2022-11-12T11:47:52;14.10;99.90
18974;DHT22;9621;48.690;9.466;2022-11-12T11:50:25;14.00;99.90
18974;DHT22;9621;48.690;9.466;2022-11-12T11:53:14;14.00;99.90
18974;DHT22;9621;48.690;9.466;2022-11-12T11:55:52;14.10;99.90
18974;DHT22;9621;48.690;9.466;2022-11-12T11:58:49;14.30;99.90
18974;DHT22;9621;48.690;9.466;2022-11-12T12:01:25;14.40;99.90
18974;DHT22;9621;48.690;9.466;2022-11-12T12:04:24;14.50;99.90
18974;DHT22;9621;48.690;9.466;2022-11-12T12:07:05;14.70;99.90
18974;DHT22;9621;48.690;9.466;2022-11-12T12:09:41;14.90;99.90
18974;DHT22;9621;48.690;9.466;2022-11-12T12:12:19;15.20;99.90
18974;DHT22;9621;48.690;9.466;2022-11-12T12:14:57;15.20;99.90
18974;DHT22;9621;48.690;9.466;2022-11-12T12:17:39;15.40;99.90
18974;DHT22;9621;48.690;9.466;2022-11-12T12:20:18;15.50;99.90
18974;DHT22;9621;48.690;9.466;2022-11-12T12:22:49;15.70;99.90
18974;DHT22;9621;48.690;9.466;2022-11-12T12:25:21;15.80;99.90
18974;DHT22;9621;48.690;9.466;2022-11-12T12:27:52;15.90;99.90
18974;DHT22;9621;48.690;9.466;2022-11-12T12:30:23;15.90;99.90
18974;DHT22;9621;48.690;9.466;2022-11-12T12:32:54;15.80;99.90
18974;DHT22;9621;48.690;9.466;2022-11-12T12:35:27;15.80;99.90
18974;DHT22;9621;48.690;9.466;2022-11-12T12:38:04;15.70;99.90
18974;DHT22;9621;48.690;9.466;2022-11-12T12:40:34;15.50;99.90
18974;DHT22;9621;48.690;9.466;2022-11-12T12:43:06;15.30;99.90
18974;DHT22;9621;48.690;9.466;2022-11-12T12:45:39;14.90;99.90
18974;DHT22;9621;48.690;9.466;2022-11-12T12:48:11;14.70;99.90
18974;DHT22;9621;48.690;9.466;2022-11-12T12:50:41;14.50;99.90
18974;DHT22;9621;48.690;9.466;2022-11-12T12:53:21;14.20;99.90
18974;DHT22;9621;48.690;9.466;2022-11-12T12:55:58;14.10;99.90
18974;DHT22;9621;48.690;9.466;2022-11-12T12:58:27;14.10;99.90
18974;DHT22;9621;48.690;9.466;2022-11-12T13:01:00;14.00;99.90
18974;DHT22;9621;48.690;9.466;2022-11-12T13:03:49;13.90;99.90
18974;DHT22;9621;48.690;9.466;2022-11-12T13:06:27;13.90;99.90
18974;DHT22;9621;48.690;9.466;2022-11-12T13:08:58;13.80;99.90
18974;DHT22;9621;48.690;9.466;2022-11-12T13:11:45;13.70;99.90
18974;DHT22;9621;48.690;9.466;2022-11-12T13:14:52;13.60;99.90
18974;DHT22;9621;48.690;9.466;2022-11-12T13:17:49;13.50;99.90
18974;DHT22;9621;48.690;9.466;2022-11-12T13:20:33;13.40;99.90
18974;DHT22;9621;48.690;9.466;2022-11-12T13:23:06;13.40;99.90
18974;DHT22;9621;48.690;9.466;2022-11-12T13:25:35;13.20;99.90
18974;DHT22;9621;48.690;9.466;2022-11-12T13:28:19;13.20;99.90
18974;DHT22;9621;48.690;9.466;2022-11-12T13:30:57;13.10;99.90
18974;DHT22;9621;48.690;9.466;2022-11-12T13:33:36;13.10;99.90
18974;DHT22;9621;48.690;9.466;2022-11-12T13:36:31;13.00;99.90
18974;DHT22;9621;48.690;9.466;2022-11-12T13:39:11;12.90;99.90
18974;DHT22;9621;48.690;9.466;2022-11-12T13:41:40;12.90;99.90
18974;DHT22;9621;48.690;9.466;2022-11-12T13:44:25;12.80;99.90
18974;DHT22;9621;48.690;9.466;2022-11-12T13:46:53;12.90;99.90
18974;DHT22;9621;48.690;9.466;2022-11-12T13:49:21;12.80;99.90
18974;DHT22;9621;48.690;9.466;2022-11-12T13:51:49;12.80;99.90
18974;DHT22;9621;48.690;9.466;2022-11-12T13:54:26;12.70;99.90
18974;DHT22;9621;48.690;9.466;2022-11-12T13:56:54;12.70;99.90
18974;DHT22;9621;48.690;9.466;2022-11-12T13:59:22;12.60;99.90
18974;DHT22;9621;48.690;9.466;2022-11-12T14:01:50;12.50;99.90
18974;DHT22;9621;48.690;9.466;2022-11-12T14:04:19;12.40;99.90
18974;DHT22;9621;48.690;9.466;2022-11-12T14:06:50;12.30;99.90
18974;DHT22;9621;48.690;9.466;2022-11-12T14:12:20;12.10;99.90
18974;DHT22;9621;48.690;9.466;2022-11-12T14:15:12;12.00;99.90
18974;DHT22;9621;48.690;9.466;2022-11-12T14:17:48;11.90;99.90
18974;DHT22;9621;48.690;9.466;2022-11-12T14:20:25;11.80;99.90
18974;DHT22;9621;48.690;9.466;2022-11-12T14:22:55;11.80;99.90
18974;DHT22;9621;48.690;9.466;2022-11-12T14:25:24;11.70;99.90
18974;DHT22;9621;48.690;9.466;2022-11-12T14:27:54;11.60;99.90
18974;DHT22;9621;48.690;9.466;2022-11-12T14:30:22;11.60;99.90
18974;DHT22;9621;48.690;9.466;2022-11-12T14:32:52;11.40;99.90
18974;DHT22;9621;48.690;9.466;2022-11-12T14:35:32;11.30;99.90
18974;DHT22;9621;48.690;9.466;2022-11-12T14:38:10;11.20;99.90
18974;DHT22;9621;48.690;9.466;2022-11-12T14:40:42;11.10;99.90
18974;DHT22;9621;48.690;9.466;2022-11-12T14:43:28;11.00;99.90
18974;DHT22;9621;48.690;9.466;2022-11-12T14:45:58;10.90;99.90
18974;DHT22;9621;48.690;9.466;2022-11-12T14:48:26;10.80;99.90
18974;DHT22;9621;48.690;9.466;2022-11-12T14:50:58;10.70;99.90
18974;DHT22;9621;48.690;9.466;2022-11-12T14:53:30;10.60;99.90
18974;DHT22;9621;48.690;9.466;2022-11-12T14:56:01;10.50;99.90
18974;DHT22;9621;48.690;9.466;2022-11-12T14:58:32;10.50;99.90
18974;DHT22;9621;48.690;9.466;2022-11-12T15:01:17;10.40;99.90
18974;DHT22;9621;48.690;9.466;2022-11-12T15:03:44;10.30;99.90
18974;DHT22;9621;48.690;9.466;2022-11-12T15:06:11;10.30;99.90
18974;DHT22;9621;48.690;9.466;2022-11-12T15:08:41;10.10;99.90
18974;DHT22;9621;48.690;9.466;2022-11-12T15:11:21;10.10;99.90
18974;DHT22;9621;48.690;9.466;2022-11-12T15:13:55;11.20;99.90
18974;DHT22;9621;48.690;9.466;2022-11-12T15:16:27;9.90;99.90
18974;DHT22;9621;48.690;9.466;2022-11-12T15:21:45;9.80;99.90
18974;DHT22;9621;48.690;9.466;2022-11-12T15:24:28;9.70;99.90
18974;DHT22;9621;48.690;9.466;2022-11-12T15:26:57;9.50;99.90
18974;DHT22;9621;48.690;9.466;2022-11-12T15:29:31;9.40;99.90
18974;DHT22;9621;48.690;9.466;2022-11-12T15:32:00;9.30;99.90
18974;DHT22;9621;48.690;9.466;2022-11-12T15:34:31;9.10;99.90
18974;DHT22;9621;48.690;9.466;2022-11-12T15:37:02;9.10;99.90
18974;DHT22;9621;48.690;9.466;2022-11-12T15:39:33;9.10;99.90
18974;DHT22;9621;48.690;9.466;2022-11-12T15:42:11;8.80;99.90
18974;DHT22;9621;48.690;9.466;2022-11-12T15:44:42;8.70;99.90
18974;DHT22;9621;48.690;9.466;2022-11-12T15:47:17;8.60;99.90
18974;DHT22;9621;48.690;9.466;2022-11-12T15:49:48;8.60;99.90
18974;DHT22;9621;48.690;9.466;2022-11-12T15:52:16;8.30;99.90
18974;DHT22;9621;48.690;9.466;2022-11-12T15:54:43;8.20;99.90
18974;DHT22;9621;48.690;9.466;2022-11-12T15:57:13;8.10;99.90
18974;DHT22;9621;48.690;9.466;2022-11-12T15:59:42;8.00;99.90
18974;DHT22;9621;48.690;9.466;2022-11-12T16:02:11;7.80;99.90
18974;DHT22;9621;48.690;9.466;2022-11-12T16:04:38;7.70;99.90
18974;DHT22;9621;48.690;9.466;2022-11-12T16:07:07;8.10;99.90
18974;DHT22;9621;48.690;9.466;2022-11-12T16:09:35;7.40;99.90
18974;DHT22;9621;48.690;9.466;2022-11-12T16:12:03;7.40;99.90
18974;DHT22;9621;48.690;9.466;2022-11-12T16:14:30;7.20;99.90
18974;DHT22;9621;48.690;9.466;2022-11-12T16:16:59;7.10;99.90
18974;DHT22;9621;48.690;9.466;2022-11-12T16:19:26;7.00;99.90
18974;DHT22;9621;48.690;9.466;2022-11-12T16:21:58;6.80;99.90
18974;DHT22;9621;48.690;9.466;2022-11-12T16:24:25;6.80;99.90
18974;DHT22;9621;48.690;9.466;2022-11-12T16:26:52;6.70;99.90
18974;DHT22;9621;48.690;9.466;2022-11-12T16:29:19;6.60;99.90